sensor_id;sensor_type;location;lat;lon;timestamp;pressure;altitude;pressure_sealevel;temperature;humidity
23166;BME280;11751;42.700;24.170;2023-08-06T00:01:11;92843.38;;;22.90;nan
23166;BME280;11751;42.700;24.170;2023-08-06T00:03:37;92844.16;;;22.93;nan
23166;BME280;11751;42.700;24.170;2023-08-06T00:06:04;92835.66;;;22.95;nan
23166;BME280;11751;42.700;24.170;2023-08-06T00:08:30;92850.63;;;22.93;nan
23166;BME280;11751;42.700;24.170;2023-08-06T00:10:55;92853.25;;;22.87;nan
23166;BME280;11751;42.700;24.170;2023-08-06T00:13:21;92855.28;;;22.83;nan
23166;BME280;11751;42.700;24.170;2023-08-06T00:15:46;92858.75;;;22.79;nan
23166;BME280;11751;42.700;24.170;2023-08-06T00:18:12;92859.19;;;22.48;nan
23166;BME280;11751;42.700;24.170;2023-08-06T00:20:40;92860.13;;;22.34;nan
23166;BME280;11751;42.700;24.170;2023-08-06T00:23:07;92869.06;;;22.24;nan
23166;BME280;11751;42.700;24.170;2023-08-06T00:25:32;92854.25;;;22.30;nan
23166;BME280;11751;42.700;24.170;2023-08-06T00:27:58;92856.94;;;22.24;nan
23166;BME280;11751;42.700;24.170;2023-08-06T00:30:23;92860.69;;;22.09;nan
23166;BME280;11751;42.700;24.170;2023-08-06T00:32:48;92858.25;;;22.21;nan
23166;BME280;11751;42.700;24.170;2023-08-06T00:35:15;92859.72;;;22.22;nan
23166;BME280;11751;42.700;24.170;2023-08-06T00:37:41;92862.63;;;22.24;nan
23166;BME280;11751;42.700;24.170;2023-08-06T00:40:07;92859.72;;;22.22;nan
23166;BME280;11751;42.700;24.170;2023-08-06T00:42:33;92853.34;;;22.23;nan
23166;BME280;11751;42.700;24.170;2023-08-06T00:45:00;92847.28;;;22.33;nan
23166;BME280;11751;42.700;24.170;2023-08-06T00:47:25;92844.59;;;22.39;nan
23166;BME280;11751;42.700;24.170;2023-08-06T00:49:51;92843.53;;;22.49;nan
23166;BME280;11751;42.700;24.170;2023-08-06T00:52:16;92824.94;;;22.48;nan
23166;BME280;11751;42.700;24.170;2023-08-06T00:54:42;92803.41;;;22.43;nan
23166;BME280;11751;42.700;24.170;2023-08-06T00:57:09;92772.94;;;22.29;nan
23166;BME280;11751;42.700;24.170;2023-08-06T00:59:35;92779.38;;;22.50;nan
23166;BME280;11751;42.700;24.170;2023-08-06T01:02:01;92775.59;;;22.67;nan
23166;BME280;11751;42.700;24.170;2023-08-06T01:04:26;92785.84;;;22.76;nan
23166;BME280;11751;42.700;24.170;2023-08-06T01:09:35;92786.41;;;22.47;nan
23166;BME280;11751;42.700;24.170;2023-08-06T01:14:37;92743.88;;;22.55;nan
23166;BME280;11751;42.700;24.170;2023-08-06T01:17:08;92739.38;;;22.48;nan
23166;BME280;11751;42.700;24.170;2023-08-06T01:19:34;92733.88;;;22.31;nan
23166;BME280;11751;42.700;24.170;2023-08-06T01:22:00;92748.19;;;22.12;nan
23166;BME280;11751;42.700;24.170;2023-08-06T01:24:25;92755.44;;;21.93;nan
23166;BME280;11751;42.700;24.170;2023-08-06T01:26:57;92754.44;;;21.85;nan
23166;BME280;11751;42.700;24.170;2023-08-06T01:29:50;92762.44;;;21.69;nan
23166;BME280;11751;42.700;24.170;2023-08-06T01:32:20;92758.28;;;21.72;nan
23166;BME280;11751;42.700;24.170;2023-08-06T01:34:47;92769.94;;;21.80;nan
23166;BME280;11751;42.700;24.170;2023-08-06T01:37:13;92764.84;;;21.76;nan
23166;BME280;11751;42.700;24.170;2023-08-06T01:39:41;92743.41;;;21.54;nan
23166;BME280;11751;42.700;24.170;2023-08-06T01:42:08;92745.44;;;21.71;nan
23166;BME280;11751;42.700;24.170;2023-08-06T01:44:33;92774.84;;;21.56;nan
23166;BME280;11751;42.700;24.170;2023-08-06T01:46:59;92797.63;;;21.37;nan
23166;BME280;11751;42.700;24.170;2023-08-06T01:49:24;92774.84;;;21.37;nan
23166;BME280;11751;42.700;24.170;2023-08-06T01:51:49;92742.47;;;21.07;nan
23166;BME280;11751;42.700;24.170;2023-08-06T01:54:15;92741.75;;;21.06;nan
23166;BME280;11751;42.700;24.170;2023-08-06T01:56:40;92747.94;;;21.20;nan
23166;BME280;11751;42.700;24.170;2023-08-06T01:59:06;92734.75;;;21.09;nan
23166;BME280;11751;42.700;24.170;2023-08-06T02:01:31;92735.75;;;21.18;nan
23166;BME280;11751;42.700;24.170;2023-08-06T02:03:56;92738.22;;;21.27;nan
23166;BME280;11751;42.700;24.170;2023-08-06T02:06:22;92744.72;;;21.30;nan
23166;BME280;11751;42.700;24.170;2023-08-06T02:08:47;92750.94;;;21.05;nan
23166;BME280;11751;42.700;24.170;2023-08-06T02:11:12;92724.41;;;20.98;nan
23166;BME280;11751;42.700;24.170;2023-08-06T02:13:38;92719.94;;;20.93;nan
23166;BME280;11751;42.700;24.170;2023-08-06T02:16:03;92735.19;;;20.82;nan
23166;BME280;11751;42.700;24.170;2023-08-06T02:18:31;92751.78;;;20.70;nan
23166;BME280;11751;42.700;24.170;2023-08-06T02:21:00;92747.16;;;20.60;nan
23166;BME280;11751;42.700;24.170;2023-08-06T02:23:26;92741.00;;;20.48;nan
23166;BME280;11751;42.700;24.170;2023-08-06T02:25:59;92746.44;;;20.22;nan
23166;BME280;11751;42.700;24.170;2023-08-06T02:28:25;92730.75;;;20.21;nan
23166;BME280;11751;42.700;24.170;2023-08-06T02:30:51;92728.63;;;20.22;nan
23166;BME280;11751;42.700;24.170;2023-08-06T02:33:16;92735.38;;;20.13;nan
23166;BME280;11751;42.700;24.170;2023-08-06T02:35:41;92729.19;;;20.36;nan
23166;BME280;11751;42.700;24.170;2023-08-06T02:38:07;92732.09;;;20.38;nan
23166;BME280;11751;42.700;24.170;2023-08-06T02:40:32;92738.38;;;20.54;nan
23166;BME280;11751;42.700;24.170;2023-08-06T02:42:58;92760.00;;;20.61;nan
23166;BME280;11751;42.700;24.170;2023-08-06T02:45:23;92775.59;;;20.60;nan
23166;BME280;11751;42.700;24.170;2023-08-06T02:47:48;92751.13;;;20.53;nan
23166;BME280;11751;42.700;24.170;2023-08-06T02:50:14;92751.50;;;20.43;nan
23166;BME280;11751;42.700;24.170;2023-08-06T02:52:39;92747.47;;;20.31;nan
23166;BME280;11751;42.700;24.170;2023-08-06T02:55:06;92748.00;;;20.45;nan
23166;BME280;11751;42.700;24.170;2023-08-06T02:57:31;92743.47;;;20.38;nan
23166;BME280;11751;42.700;24.170;2023-08-06T02:59:57;92743.22;;;20.32;nan
23166;BME280;11751;42.700;24.170;2023-08-06T03:02:22;92746.97;;;20.36;nan
23166;BME280;11751;42.700;24.170;2023-08-06T03:04:48;92757.06;;;20.22;nan
23166;BME280;11751;42.700;24.170;2023-08-06T03:07:13;92754.53;;;20.30;nan
23166;BME280;11751;42.700;24.170;2023-08-06T03:09:39;92745.06;;;20.43;nan
23166;BME280;11751;42.700;24.170;2023-08-06T03:12:04;92755.34;;;20.52;nan
23166;BME280;11751;42.700;24.170;2023-08-06T03:14:30;92758.19;;;20.52;nan
23166;BME280;11751;42.700;24.170;2023-08-06T03:16:55;92750.91;;;20.47;nan
23166;BME280;11751;42.700;24.170;2023-08-06T03:19:21;92748.28;;;20.53;nan
23166;BME280;11751;42.700;24.170;2023-08-06T03:21:46;92740.00;;;20.59;nan
23166;BME280;11751;42.700;24.170;2023-08-06T03:24:13;92720.94;;;20.44;nan
23166;BME280;11751;42.700;24.170;2023-08-06T03:26:38;92715.16;;;20.42;nan
23166;BME280;11751;42.700;24.170;2023-08-06T03:29:04;92716.88;;;20.12;nan
23166;BME280;11751;42.700;24.170;2023-08-06T03:31:29;92737.03;;;20.18;nan
23166;BME280;11751;42.700;24.170;2023-08-06T03:33:54;92740.16;;;20.26;nan
23166;BME280;11751;42.700;24.170;2023-08-06T03:36:20;92739.94;;;20.20;nan
23166;BME280;11751;42.700;24.170;2023-08-06T03:38:45;92731.22;;;20.33;nan
23166;BME280;11751;42.700;24.170;2023-08-06T03:41:11;92734.06;;;20.33;nan
23166;BME280;11751;42.700;24.170;2023-08-06T03:43:36;92749.44;;;20.46;nan
23166;BME280;11751;42.700;24.170;2023-08-06T03:46:01;92751.50;;;20.43;nan
23166;BME280;11751;42.700;24.170;2023-08-06T03:48:27;92748.44;;;20.57;nan
23166;BME280;11751;42.700;24.170;2023-08-06T03:50:52;92747.28;;;20.63;nan
23166;BME280;11751;42.700;24.170;2023-08-06T03:53:18;92744.44;;;20.44;nan
23166;BME280;11751;42.700;24.170;2023-08-06T03:55:43;92750.63;;;20.39;nan
23166;BME280;11751;42.700;24.170;2023-08-06T03:58:08;92753.69;;;20.45;nan
23166;BME280;11751;42.700;24.170;2023-08-06T04:00:34;92758.19;;;20.52;nan
23166;BME280;11751;42.700;24.170;2023-08-06T04:02:59;92734.44;;;20.43;nan
23166;BME280;11751;42.700;24.170;2023-08-06T04:05:24;92741.13;;;20.52;nan
23166;BME280;11751;42.700;24.170;2023-08-06T04:07:50;92752.41;;;20.30;nan
23166;BME280;11751;42.700;24.170;2023-08-06T04:10:15;92759.34;;;20.25;nan
23166;BME280;11751;42.700;24.170;2023-08-06T04:12:41;92772.41;;;20.15;nan
23166;BME280;11751;42.700;24.170;2023-08-06T04:15:07;92794.44;;;19.97;nan
23166;BME280;11751;42.700;24.170;2023-08-06T04:17:32;92789.41;;;19.95;nan
23166;BME280;11751;42.700;24.170;2023-08-06T04:19:57;92803.59;;;19.78;nan
23166;BME280;11751;42.700;24.170;2023-08-06T04:22:27;92800.84;;;19.80;nan
23166;BME280;11751;42.700;24.170;2023-08-06T04:24:52;92794.50;;;19.81;nan
23166;BME280;11751;42.700;24.170;2023-08-06T04:27:19;92777.53;;;19.83;nan
23166;BME280;11751;42.700;24.170;2023-08-06T04:29:44;92767.78;;;19.88;nan
23166;BME280;11751;42.700;24.170;2023-08-06T04:32:10;92762.94;;;20.08;nan
23166;BME280;11751;42.700;24.170;2023-08-06T04:34:36;92759.59;;;20.14;nan
23166;BME280;11751;42.700;24.170;2023-08-06T04:37:03;92766.06;;;20.34;nan
23166;BME280;11751;42.700;24.170;2023-08-06T04:39:28;92773.59;;;20.45;nan
23166;BME280;11751;42.700;24.170;2023-08-06T04:41:55;92773.59;;;20.45;nan
23166;BME280;11751;42.700;24.170;2023-08-06T04:44:20;92787.34;;;20.33;nan
23166;BME280;11751;42.700;24.170;2023-08-06T04:46:46;92808.78;;;20.36;nan
23166;BME280;11751;42.700;24.170;2023-08-06T04:49:11;92812.53;;;20.23;nan
23166;BME280;11751;42.700;24.170;2023-08-06T04:51:36;92783.66;;;20.11;nan
23166;BME280;11751;42.700;24.170;2023-08-06T04:54:02;92776.06;;;19.82;nan
23166;BME280;11751;42.700;24.170;2023-08-06T04:56:27;92783.78;;;19.80;nan
23166;BME280;11751;42.700;24.170;2023-08-06T04:58:53;92769.97;;;19.55;nan
23166;BME280;11751;42.700;24.170;2023-08-06T05:01:18;92769.25;;;19.55;nan
23166;BME280;11751;42.700;24.170;2023-08-06T05:03:44;92761.34;;;19.53;nan
23166;BME280;11751;42.700;24.170;2023-08-06T05:06:09;92774.69;;;19.66;nan
23166;BME280;11751;42.700;24.170;2023-08-06T05:08:35;92755.22;;;19.76;nan
23166;BME280;11751;42.700;24.170;2023-08-06T05:11:01;92729.91;;;19.82;nan
23166;BME280;11751;42.700;24.170;2023-08-06T05:13:26;92718.28;;;19.93;nan
23166;BME280;11751;42.700;24.170;2023-08-06T05:15:55;92712.75;;;19.97;nan
23166;BME280;11751;42.700;24.170;2023-08-06T05:18:20;92721.38;;;19.99;nan
23166;BME280;11751;42.700;24.170;2023-08-06T05:20:45;92740.47;;;19.97;nan
23166;BME280;11751;42.700;24.170;2023-08-06T05:23:11;92759.44;;;19.75;nan
23166;BME280;11751;42.700;24.170;2023-08-06T05:25:37;92756.41;;;19.88;nan
23166;BME280;11751;42.700;24.170;2023-08-06T05:28:04;92747.84;;;19.69;nan
23166;BME280;11751;42.700;24.170;2023-08-06T05:30:29;92751.94;;;19.49;nan
23166;BME280;11751;42.700;24.170;2023-08-06T05:32:55;92758.38;;;19.16;nan
23166;BME280;11751;42.700;24.170;2023-08-06T05:35:21;92743.06;;;18.90;nan
23166;BME280;11751;42.700;24.170;2023-08-06T05:37:47;92743.59;;;19.02;nan
23166;BME280;11751;42.700;24.170;2023-08-06T05:40:13;92747.06;;;19.01;nan
23166;BME280;11751;42.700;24.170;2023-08-06T05:42:39;92752.00;;;19.00;nan
23166;BME280;11751;42.700;24.170;2023-08-06T05:45:05;92765.06;;;19.07;nan
23166;BME280;11751;42.700;24.170;2023-08-06T05:47:30;92760.44;;;18.98;nan
23166;BME280;11751;42.700;24.170;2023-08-06T05:49:55;92749.94;;;18.86;nan
23166;BME280;11751;42.700;24.170;2023-08-06T05:52:21;92760.25;;;18.94;nan
23166;BME280;11751;42.700;24.170;2023-08-06T05:54:46;92774.88;;;19.04;nan
23166;BME280;11751;42.700;24.170;2023-08-06T05:57:12;92776.31;;;19.21;nan
23166;BME280;11751;42.700;24.170;2023-08-06T05:59:37;92768.28;;;19.15;nan
23166;BME280;11751;42.700;24.170;2023-08-06T06:02:03;92759.50;;;19.09;nan
23166;BME280;11751;42.700;24.170;2023-08-06T06:04:28;92757.81;;;19.20;nan
23166;BME280;11751;42.700;24.170;2023-08-06T06:06:54;92769.94;;;19.20;nan
23166;BME280;11751;42.700;24.170;2023-08-06T06:09:19;92772.09;;;19.22;nan
23166;BME280;11751;42.700;24.170;2023-08-06T06:11:45;92762.00;;;19.34;nan
23166;BME280;11751;42.700;24.170;2023-08-06T06:14:10;92774.66;;;19.31;nan
23166;BME280;11751;42.700;24.170;2023-08-06T06:16:35;92762.00;;;19.34;nan
23166;BME280;11751;42.700;24.170;2023-08-06T06:19:01;92774.25;;;19.39;nan
23166;BME280;11751;42.700;24.170;2023-08-06T06:21:26;92775.41;;;19.49;nan
23166;BME280;11751;42.700;24.170;2023-08-06T06:23:52;92791.97;;;19.55;nan
23166;BME280;11751;42.700;24.170;2023-08-06T06:26:18;92775.19;;;19.78;nan
23166;BME280;11751;42.700;24.170;2023-08-06T06:28:43;92765.78;;;19.91;nan
23166;BME280;11751;42.700;24.170;2023-08-06T06:31:09;92766.88;;;19.84;nan
23166;BME280;11751;42.700;24.170;2023-08-06T06:33:35;92780.53;;;19.70;nan
23166;BME280;11751;42.700;24.170;2023-08-06T06:36:00;92777.78;;;19.72;nan
23166;BME280;11751;42.700;24.170;2023-08-06T06:38:28;92782.97;;;19.77;nan
23166;BME280;11751;42.700;24.170;2023-08-06T06:40:57;92807.28;;;19.65;nan
23166;BME280;11751;42.700;24.170;2023-08-06T06:43:23;92807.63;;;19.73;nan
23166;BME280;11751;42.700;24.170;2023-08-06T06:46:01;92808.81;;;20.01;nan
23166;BME280;11751;42.700;24.170;2023-08-06T06:48:28;92823.56;;;20.15;nan
23166;BME280;11751;42.700;24.170;2023-08-06T06:50:54;92818.38;;;20.27;nan
23166;BME280;11751;42.700;24.170;2023-08-06T06:53:19;92820.41;;;20.24;nan
23166;BME280;11751;42.700;24.170;2023-08-06T06:55:45;92818.22;;;20.23;nan
23166;BME280;11751;42.700;24.170;2023-08-06T06:58:10;92824.56;;;20.21;nan
23166;BME280;11751;42.700;24.170;2023-08-06T07:00:36;92829.16;;;20.30;nan
23166;BME280;11751;42.700;24.170;2023-08-06T07:03:02;92825.47;;;20.63;nan
23166;BME280;11751;42.700;24.170;2023-08-06T07:05:28;92811.44;;;20.86;nan
23166;BME280;11751;42.700;24.170;2023-08-06T07:07:53;92801.81;;;21.14;nan
23166;BME280;11751;42.700;24.170;2023-08-06T07:10:18;92786.63;;;21.27;nan
23166;BME280;11751;42.700;24.170;2023-08-06T07:12:44;92800.56;;;21.58;nan
23166;BME280;11751;42.700;24.170;2023-08-06T07:15:09;92802.56;;;21.75;nan
23166;BME280;11751;42.700;24.170;2023-08-06T07:17:35;92811.59;;;22.10;nan
23166;BME280;11751;42.700;24.170;2023-08-06T07:20:00;92798.97;;;22.39;nan
23166;BME280;11751;42.700;24.170;2023-08-06T07:22:26;92806.50;;;22.75;nan
23166;BME280;11751;42.700;24.170;2023-08-06T07:24:54;92810.88;;;23.01;nan
23166;BME280;11751;42.700;24.170;2023-08-06T07:27:19;92822.97;;;23.23;nan
23166;BME280;11751;42.700;24.170;2023-08-06T07:29:45;92821.84;;;23.34;nan
23166;BME280;11751;42.700;24.170;2023-08-06T07:32:10;92830.09;;;23.22;nan
23166;BME280;11751;42.700;24.170;2023-08-06T07:34:36;92829.53;;;23.53;nan
23166;BME280;11751;42.700;24.170;2023-08-06T07:37:01;92834.00;;;23.60;nan
23166;BME280;11751;42.700;24.170;2023-08-06T07:39:26;92851.44;;;23.44;nan
23166;BME280;11751;42.700;24.170;2023-08-06T07:41:53;92857.84;;;23.45;nan
23166;BME280;11751;42.700;24.170;2023-08-06T07:44:19;92843.19;;;23.31;nan
23166;BME280;11751;42.700;24.170;2023-08-06T07:46:44;92850.84;;;23.25;nan
23166;BME280;11751;42.700;24.170;2023-08-06T07:49:10;92852.94;;;23.22;nan
23166;BME280;11751;42.700;24.170;2023-08-06T07:51:36;92847.50;;;23.32;nan
23166;BME280;11751;42.700;24.170;2023-08-06T07:54:02;92842.72;;;23.66;nan
23166;BME280;11751;42.700;24.170;2023-08-06T07:56:27;92837.00;;;23.66;nan
23166;BME280;11751;42.700;24.170;2023-08-06T07:58:52;92843.56;;;23.70;nan
23166;BME280;11751;42.700;24.170;2023-08-06T08:01:18;92843.75;;;24.02;nan
23166;BME280;11751;42.700;24.170;2023-08-06T08:03:43;92841.00;;;24.35;nan
23166;BME280;11751;42.700;24.170;2023-08-06T08:06:08;92843.84;;;24.62;nan
23166;BME280;11751;42.700;24.170;2023-08-06T08:08:34;92835.47;;;24.72;nan
23166;BME280;11751;42.700;24.170;2023-08-06T08:11:03;92832.28;;;25.19;nan
23166;BME280;11751;42.700;24.170;2023-08-06T08:13:29;92839.66;;;25.63;nan
23166;BME280;11751;42.700;24.170;2023-08-06T08:15:58;92830.06;;;25.51;nan
23166;BME280;11751;42.700;24.170;2023-08-06T08:18:24;92825.78;;;25.50;nan
23166;BME280;11751;42.700;24.170;2023-08-06T08:20:49;92813.31;;;25.37;nan
23166;BME280;11751;42.700;24.170;2023-08-06T08:23:14;92814.63;;;25.66;nan
23166;BME280;11751;42.700;24.170;2023-08-06T08:25:40;92825.56;;;26.12;nan
23166;BME280;11751;42.700;24.170;2023-08-06T08:28:05;92820.25;;;26.36;nan
23166;BME280;11751;42.700;24.170;2023-08-06T08:30:31;92817.88;;;26.23;nan
23166;BME280;11751;42.700;24.170;2023-08-06T08:32:56;92813.22;;;26.04;nan
23166;BME280;11751;42.700;24.170;2023-08-06T08:35:21;92811.84;;;25.72;nan
23166;BME280;11751;42.700;24.170;2023-08-06T08:37:47;92811.06;;;26.04;nan
23166;BME280;11751;42.700;24.170;2023-08-06T08:40:14;92797.78;;;26.25;nan
23166;BME280;11751;42.700;24.170;2023-08-06T08:42:40;92804.16;;;26.61;nan
23166;BME280;11751;42.700;24.170;2023-08-06T08:45:11;92794.66;;;26.50;nan
23166;BME280;11751;42.700;24.170;2023-08-06T08:47:38;92790.69;;;26.71;nan
23166;BME280;11751;42.700;24.170;2023-08-06T08:50:06;92785.31;;;26.97;nan
23166;BME280;11751;42.700;24.170;2023-08-06T08:52:33;92762.66;;;26.70;nan
23166;BME280;11751;42.700;24.170;2023-08-06T08:55:01;92771.69;;;26.97;nan
23166;BME280;11751;42.700;24.170;2023-08-06T08:57:26;92764.41;;;27.44;nan
23166;BME280;11751;42.700;24.170;2023-08-06T08:59:52;92751.47;;;27.47;nan
23166;BME280;11751;42.700;24.170;2023-08-06T09:02:18;92744.53;;;27.64;nan
23166;BME280;11751;42.700;24.170;2023-08-06T09:04:47;92747.19;;;27.48;nan
23166;BME280;11751;42.700;24.170;2023-08-06T09:07:18;92743.81;;;27.65;nan
23166;BME280;11751;42.700;24.170;2023-08-06T09:09:47;92743.19;;;27.73;nan
23166;BME280;11751;42.700;24.170;2023-08-06T09:12:15;92745.72;;;27.47;nan
23166;BME280;11751;42.700;24.170;2023-08-06T09:14:41;92741.97;;;27.32;nan
23166;BME280;11751;42.700;24.170;2023-08-06T09:17:07;92742.38;;;27.05;nan
23166;BME280;11751;42.700;24.170;2023-08-06T09:19:34;92761.22;;;27.20;nan
23166;BME280;11751;42.700;24.170;2023-08-06T09:21:59;92764.03;;;27.14;nan
23166;BME280;11751;42.700;24.170;2023-08-06T09:24:25;92756.16;;;27.16;nan
23166;BME280;11751;42.700;24.170;2023-08-06T09:26:51;92752.75;;;27.32;nan
23166;BME280;11751;42.700;24.170;2023-08-06T09:29:17;92752.25;;;27.51;nan
23166;BME280;11751;42.700;24.170;2023-08-06T09:31:43;92753.25;;;27.72;nan
23166;BME280;11751;42.700;24.170;2023-08-06T09:34:19;92762.75;;;27.86;nan
23166;BME280;11751;42.700;24.170;2023-08-06T09:36:50;92755.06;;;28.08;nan
23166;BME280;11751;42.700;24.170;2023-08-06T09:39:20;92751.00;;;28.35;nan
23166;BME280;11751;42.700;24.170;2023-08-06T09:41:47;92746.75;;;28.46;nan
23166;BME280;11751;42.700;24.170;2023-08-06T09:44:16;92754.25;;;28.81;nan
23166;BME280;11751;42.700;24.170;2023-08-06T09:46:47;92749.81;;;28.68;nan
23166;BME280;11751;42.700;24.170;2023-08-06T09:49:12;92747.66;;;28.68;nan
23166;BME280;11751;42.700;24.170;2023-08-06T09:51:38;92748.63;;;29.05;nan
23166;BME280;11751;42.700;24.170;2023-08-06T09:54:05;92744.38;;;29.12;nan
23166;BME280;11751;42.700;24.170;2023-08-06T09:56:33;92747.31;;;29.22;nan
23166;BME280;11751;42.700;24.170;2023-08-06T09:59:04;92739.97;;;28.99;nan
23166;BME280;11751;42.700;24.170;2023-08-06T10:01:32;92740.59;;;28.85;nan
23166;BME280;11751;42.700;24.170;2023-08-06T10:04:00;92751.25;;;28.69;nan
23166;BME280;11751;42.700;24.170;2023-08-06T10:06:26;92754.84;;;28.69;nan
23166;BME280;11751;42.700;24.170;2023-08-06T10:08:53;92753.84;;;28.31;nan
23166;BME280;11751;42.700;24.170;2023-08-06T10:11:21;92752.41;;;28.30;nan
23166;BME280;11751;42.700;24.170;2023-08-06T10:13:47;92746.50;;;28.18;nan
23166;BME280;11751;42.700;24.170;2023-08-06T10:16:14;92730.31;;;27.79;nan
23166;BME280;11751;42.700;24.170;2023-08-06T10:18:40;92743.22;;;27.76;nan
23166;BME280;11751;42.700;24.170;2023-08-06T10:21:10;92763.38;;;27.78;nan
23166;BME280;11751;42.700;24.170;2023-08-06T10:23:36;92749.22;;;28.00;nan
23166;BME280;11751;42.700;24.170;2023-08-06T10:26:03;92746.31;;;27.98;nan
23166;BME280;11751;42.700;24.170;2023-08-06T10:28:37;92751.19;;;27.82;nan
23166;BME280;11751;42.700;24.170;2023-08-06T10:31:03;92755.22;;;27.57;nan
23166;BME280;11751;42.700;24.170;2023-08-06T10:33:45;92750.41;;;27.77;nan
23166;BME280;11751;42.700;24.170;2023-08-06T10:36:11;92739.09;;;27.93;nan
23166;BME280;11751;42.700;24.170;2023-08-06T10:38:45;92743.59;;;28.16;nan
23166;BME280;11751;42.700;24.170;2023-08-06T10:41:15;92742.47;;;28.49;nan
23166;BME280;11751;42.700;24.170;2023-08-06T10:43:42;92737.38;;;28.44;nan
23166;BME280;11751;42.700;24.170;2023-08-06T10:46:12;92749.41;;;28.20;nan
23166;BME280;11751;42.700;24.170;2023-08-06T10:48:45;92753.75;;;28.21;nan
23166;BME280;11751;42.700;24.170;2023-08-06T10:51:13;92752.13;;;28.02;nan
23166;BME280;11751;42.700;24.170;2023-08-06T10:53:44;92741.47;;;28.17;nan
23166;BME280;11751;42.700;24.170;2023-08-06T10:58:39;92755.84;;;28.17;nan
23166;BME280;11751;42.700;24.170;2023-08-06T11:01:06;92755.69;;;27.99;nan
23166;BME280;11751;42.700;24.170;2023-08-06T11:03:32;92765.09;;;28.05;nan
23166;BME280;11751;42.700;24.170;2023-08-06T11:05:59;92772.66;;;27.73;nan
23166;BME280;11751;42.700;24.170;2023-08-06T11:08:26;92770.56;;;27.18;nan
23166;BME280;11751;42.700;24.170;2023-08-06T11:10:51;92776.94;;;27.13;nan
23166;BME280;11751;42.700;24.170;2023-08-06T11:13:17;92772.59;;;26.19;nan
23166;BME280;11751;42.700;24.170;2023-08-06T11:15:44;92774.03;;;26.20;nan
23166;BME280;11751;42.700;24.170;2023-08-06T11:18:10;92784.75;;;25.77;nan
23166;BME280;11751;42.700;24.170;2023-08-06T11:20:36;92788.03;;;26.00;nan
23166;BME280;11751;42.700;24.170;2023-08-06T11:23:02;92793.53;;;25.87;nan
23166;BME280;11751;42.700;24.170;2023-08-06T11:25:27;92778.19;;;26.11;nan
23166;BME280;11751;42.700;24.170;2023-08-06T11:27:54;92773.56;;;25.93;nan
23166;BME280;11751;42.700;24.170;2023-08-06T11:30:19;92773.69;;;26.40;nan
23166;BME280;11751;42.700;24.170;2023-08-06T11:32:46;92776.03;;;26.53;nan
23166;BME280;11751;42.700;24.170;2023-08-06T11:35:12;92786.28;;;26.64;nan
23166;BME280;11751;42.700;24.170;2023-08-06T11:37:40;92778.03;;;26.90;nan
23166;BME280;11751;42.700;24.170;2023-08-06T11:40:09;92785.16;;;26.85;nan
23166;BME280;11751;42.700;24.170;2023-08-06T11:42:36;92772.25;;;26.86;nan
23166;BME280;11751;42.700;24.170;2023-08-06T11:45:05;92783.13;;;26.48;nan
23166;BME280;11751;42.700;24.170;2023-08-06T11:47:30;92786.41;;;26.74;nan
23166;BME280;11751;42.700;24.170;2023-08-06T11:49:56;92782.06;;;27.18;nan
23166;BME280;11751;42.700;24.170;2023-08-06T11:52:23;92782.97;;;27.35;nan
23166;BME280;11751;42.700;24.170;2023-08-06T11:55:08;92790.69;;;27.77;nan
23166;BME280;11751;42.700;24.170;2023-08-06T11:57:38;92799.53;;;27.95;nan
23166;BME280;11751;42.700;24.170;2023-08-06T12:00:06;92789.97;;;28.46;nan
23166;BME280;11751;42.700;24.170;2023-08-06T12:02:32;92788.44;;;28.37;nan
23166;BME280;11751;42.700;24.170;2023-08-06T12:05:05;92795.84;;;28.58;nan
23166;BME280;11751;42.700;24.170;2023-08-06T12:07:43;92805.69;;;28.33;nan
23166;BME280;11751;42.700;24.170;2023-08-06T12:10:09;92805.75;;;28.39;nan
23166;BME280;11751;42.700;24.170;2023-08-06T12:12:35;92797.06;;;28.35;nan
23166;BME280;11751;42.700;24.170;2023-08-06T12:15:02;92808.66;;;28.45;nan
23166;BME280;11751;42.700;24.170;2023-08-06T12:17:34;92802.81;;;28.31;nan
23166;BME280;11751;42.700;24.170;2023-08-06T12:20:00;92803.69;;;27.80;nan
23166;BME280;11751;42.700;24.170;2023-08-06T12:22:25;92807.94;;;27.75;nan
23166;BME280;11751;42.700;24.170;2023-08-06T12:24:51;92810.03;;;27.69;nan
23166;BME280;11751;42.700;24.170;2023-08-06T12:27:16;92812.75;;;27.61;nan
23166;BME280;11751;42.700;24.170;2023-08-06T12:29:43;92814.31;;;27.66;nan
23166;BME280;11751;42.700;24.170;2023-08-06T12:32:10;92814.97;;;27.63;nan
23166;BME280;11751;42.700;24.170;2023-08-06T12:34:40;92817.75;;;27.57;nan
23166;BME280;11751;42.700;24.170;2023-08-06T12:37:06;92816.88;;;27.44;nan
23166;BME280;11751;42.700;24.170;2023-08-06T12:39:33;92824.91;;;27.02;nan
23166;BME280;11751;42.700;24.170;2023-08-06T12:42:02;92824.97;;;26.61;nan
23166;BME280;11751;42.700;24.170;2023-08-06T12:44:28;92826.34;;;26.56;nan
23166;BME280;11751;42.700;24.170;2023-08-06T12:46:54;92820.72;;;26.64;nan
23166;BME280;11751;42.700;24.170;2023-08-06T12:49:19;92829.44;;;26.70;nan
23166;BME280;11751;42.700;24.170;2023-08-06T12:51:51;92836.13;;;26.84;nan
23166;BME280;11751;42.700;24.170;2023-08-06T12:54:18;92834.66;;;26.82;nan
23166;BME280;11751;42.700;24.170;2023-08-06T12:56:47;92830.34;;;26.83;nan
23166;BME280;11751;42.700;24.170;2023-08-06T12:59:16;92836.03;;;26.79;nan
23166;BME280;11751;42.700;24.170;2023-08-06T13:01:42;92841.19;;;26.86;nan
23166;BME280;11751;42.700;24.170;2023-08-06T13:04:08;92838.19;;;27.25;nan
23166;BME280;11751;42.700;24.170;2023-08-06T13:06:33;92846.28;;;26.46;nan
23166;BME280;11751;42.700;24.170;2023-08-06T13:09:03;92841.66;;;26.31;nan
23166;BME280;11751;42.700;24.170;2023-08-06T13:11:29;92836.91;;;26.04;nan
23166;BME280;11751;42.700;24.170;2023-08-06T13:13:55;92843.47;;;26.11;nan